Skip to main content

NOAA/GLERL Met Station at Michigan City, IN

Previous 3 Hours (2 minute increments)
See also Previous 5 Days (top of hour)
Jump down to Data
Switch to [English][Metric]
Zoom: Click and drag, Pan: shift-click and drag, Unzoom: double-click, Unzoom All





See also 1-day windrose plot


NOAA/GLERL Met Station at Michigan City, IN

Previous 3 Hours (2 minute increments)
See also Previous 5 Days (top of hour only)
Jump up to Graphs
Switch to [English][Metric]
                  Wind  Wind  Wind   Air   Dew   Rel     Sta   PAR
                   Spd   Gst   Dir  Temp    Pt   Hum    Pres uE/m2/
YYYY-MM-DD   CDT   kts   kts   deg     F     F     %   in Hg   sec
2020-09-27 13:42   8.6   9.5   308  71.2  63.1  75.2    0.00   660
2020-09-27 13:40   7.6   8.6   309  71.6  62.8  73.5    0.00   771
2020-09-27 13:38   8.2   8.6   305  71.4  62.7  73.7    0.00   876
2020-09-27 13:36   7.6   8.0   305  71.6  63.3  74.7    0.00   913
2020-09-27 13:34   7.0   7.6   309  71.6  63.3  74.6    0.00  1119
2020-09-27 13:32   7.0   7.2   321  71.6  63.3  74.8    0.00  1168
2020-09-27 13:30   7.6   7.8   320  71.8  63.0  73.5    0.00   951
2020-09-27 13:28   8.0   8.4   308  72.1  62.7  71.9    0.00   972
2020-09-27 13:26   7.6   8.0   298  72.5  62.3  70.0    0.00  1293
2020-09-27 13:24   7.6   8.0   285  72.1  62.3  70.8    0.00  1267
2020-09-27 13:22   7.2   7.6   284  71.8  62.5  72.3    0.00   871
2020-09-27 13:20   7.0   7.2   282  71.6  62.5  72.7    0.00   777
2020-09-27 13:18   6.8   7.2   279  72.0  62.6  71.9    0.00   905
2020-09-27 13:16   7.2   7.6   276  71.4  62.0  71.7    0.00   907
2020-09-27 13:14   8.2   8.6   270  71.1  61.7  72.0    0.00   821
2020-09-27 13:12   8.9   9.3   268  70.9  61.7  72.3    0.00   765
2020-09-27 13:10   8.7   8.9   272  71.1  61.7  72.0    0.00   852
2020-09-27 13:08   9.3   9.7   271  71.6  61.8  70.7    0.00  1045
2020-09-27 13:06   8.7   8.9   274  71.6  62.0  71.4    0.00  1134
2020-09-27 13:04   9.1   9.3   273  71.6  61.8  70.9    0.00   859
2020-09-27 13:02   9.1   9.3   274  72.0  62.0  70.4    0.00   859
2020-09-27 13:00   9.7   9.9   275  72.0  62.1  70.7    0.00  1101
2020-09-27 12:58   9.7   9.9   281  72.1  62.0  70.0    0.00  1064
2020-09-27 12:56   9.7   9.9   281  72.3  62.0  69.6    0.00  1067
2020-09-27 12:54  10.1  10.3   281  72.7  62.2  69.2    0.00  1286
2020-09-27 12:52   9.5   9.9   286  72.5  62.1  69.3    0.00  1132
2020-09-27 12:50   9.3   9.7   289  72.3  62.4  70.5    0.00   876
2020-09-27 12:48   9.1   9.7   285  71.8  62.2  71.5    0.00  1367
2020-09-27 12:46   8.4   9.1   278  71.2  63.0  74.8    0.00   903
2020-09-27 12:44   5.2   6.4   281  72.1  63.4  73.6    0.00   811
2020-09-27 12:42   4.1   5.2   293  72.5  63.4  72.8    0.00  1310
2020-09-27 12:40   2.9   3.7   297  72.0  63.1  73.4    0.00   830
2020-09-27 12:38   1.7   3.1   305  71.2  63.2  75.5    0.00  1382
2020-09-27 12:36   1.2   2.3   288  70.2  63.0  77.8    0.00  1406
2020-09-27 12:34   1.2   2.1   261  69.8  63.1  79.0    0.00  1233
2020-09-27 12:32   0.2   1.0   166  69.3  63.2  80.9    0.00  1013
2020-09-27 12:30   0.6   1.4   141  69.3  63.4  81.3    0.00   948
2020-09-27 12:28   2.3   3.5   224  69.6  62.5  77.8    0.00   937
2020-09-27 12:26   3.5   3.7   234  70.2  61.9  74.8    0.00   898
2020-09-27 12:24   3.5   4.1   248  70.3  61.7  73.7    0.00   866
2020-09-27 12:22   4.7   5.2   260  70.0  61.5  74.2    0.00   855
2020-09-27 12:20   5.4   5.6   259  69.6  62.1  76.8    0.00   862
2020-09-27 12:18   4.9   5.4   256  69.6  62.2  76.9    0.00   910
2020-09-27 12:16   4.5   4.9   256  69.8  62.0  75.9    0.00   944
2020-09-27 12:14   5.4   6.2   254  69.8  61.8  75.5    0.00  1009
2020-09-27 12:12   6.2   6.8   258  69.8  61.8  75.4    0.00   999
2020-09-27 12:10   7.4   7.8   259  69.6  61.9  76.0    0.00  1151
2020-09-27 12:08   8.4   8.6   259  69.4  61.9  76.7    0.00  1365
2020-09-27 12:06   8.6   8.9   258  69.8  61.8  75.5    0.00  1071
2020-09-27 12:04   8.6   8.7   253  70.0  61.8  74.8    0.00   974
2020-09-27 12:02   8.4   8.6   252  70.0  61.9  75.1    0.00  1353
2020-09-27 12:00   8.4   8.6   255  69.6  61.7  75.7    0.00  1102
2020-09-27 11:58   8.4   9.3   259  70.3  61.7  73.8    0.00  1205
2020-09-27 11:56   8.2   8.7   260  70.0  61.7  74.7    0.00  1506
2020-09-27 11:54   8.6   8.9   265  69.3  62.0  77.4    0.00  1483
2020-09-27 11:52   7.6   8.9   261  69.4  62.0  77.0    0.00  1471
2020-09-27 11:50   8.0   8.6   257  69.1  61.9  77.7    0.00  1410
2020-09-27 11:48   9.1   9.9   261  69.6  61.8  75.8    0.00   893
2020-09-27 11:46   7.0   8.0   260  69.6  61.5  75.1    0.00  1052
2020-09-27 11:44   8.4   8.7   267  69.1  61.7  77.0    0.00  1049
2020-09-27 11:42   8.7   9.1   264  69.1  62.0  77.9    0.00  1300
2020-09-27 11:40   8.2   8.4   259  69.1  62.0  77.8    0.00  1155
2020-09-27 11:38   8.4   8.9   257  68.7  62.1  79.1    0.00  1097
2020-09-27 11:36   8.0   9.1   261  68.9  62.2  78.8    0.00   859
2020-09-27 11:34   7.0   7.4   255  69.8  62.0  75.9    0.00  1270
2020-09-27 11:32   7.4   7.8   246  69.6  61.7  75.5    0.00   992
2020-09-27 11:30   8.9  10.3   248  69.1  61.9  77.6    0.00  1203
2020-09-27 11:28   9.7  10.1   257  69.3  61.8  76.9    0.00  1400
2020-09-27 11:26   9.7  10.1   256  69.3  61.8  76.7    0.00  1187
2020-09-27 11:24  10.3  10.7   259  68.4  62.2  80.3    0.00   968
2020-09-27 11:22  10.1  10.5   260  68.7  62.1  79.0    0.00   684
2020-09-27 11:20  10.3  10.5   257  68.7  61.9  78.5    0.00   840
2020-09-27 11:18  10.3  10.9   263  68.7  61.9  78.5    0.00  1003
2020-09-27 11:16   9.9  10.7   268  68.9  62.4  79.6    0.00   992
2020-09-27 11:14   9.5   9.9   272  68.9  62.4  79.4    0.00  1030
2020-09-27 11:12  10.1  10.3   266  69.4  62.0  76.9    0.00   955
2020-09-27 11:10   9.3  10.3   266  69.6  62.0  76.5    0.00   953
2020-09-27 11:08  10.1  11.3   267  69.4  62.2  77.4    0.00   992
2020-09-27 11:06  10.1  11.3   270  69.6  62.3  77.2    0.00  1085
2020-09-27 11:04   9.1  10.1   249  70.5  61.9  73.9    0.00   902
2020-09-27 11:02   8.4   9.3   243  70.3  61.8  74.0    0.00   946
2020-09-27 11:00   7.4   8.0   228  70.2  62.0  75.1    0.00   770
2020-09-27 10:58   7.6   8.2   224  70.0  61.8  75.0    0.00   909
2020-09-27 10:56   7.8   8.6   228  70.0  61.8  74.8    0.00  1232
2020-09-27 10:54   7.6   8.2   235  70.2  61.9  74.8    0.00  1328
2020-09-27 10:52   8.7   9.3   227  70.2  61.6  73.9    0.00  1218
2020-09-27 10:50   7.2   9.1   220  69.8  62.0  76.0    0.00  1085
2020-09-27 10:48   7.6   8.7   214  70.3  61.9  74.2    0.00   999
2020-09-27 10:46   7.8   8.9   225  70.3  61.6  73.5    0.00   982
2020-09-27 10:44   8.4   9.1   230  70.2  61.6  74.0    0.00   869
2020-09-27 10:42   8.6   9.3   228  70.2  61.6  74.0    0.00   902